sensor_id;sensor_type;location;lat;lon;timestamp;temperature;humidity
69162;DHT22;56269;51.738;21.652;2024-03-08T00:02:45;-4.09;99.99
69162;DHT22;56269;51.738;21.652;2024-03-08T00:05:12;-4.10;99.99
69162;DHT22;56269;51.738;21.652;2024-03-08T00:07:39;-4.09;99.99
69162;DHT22;56269;51.738;21.652;2024-03-08T00:10:07;-4.09;99.99
69162;DHT22;56269;51.738;21.652;2024-03-08T00:12:40;-4.13;99.99
69162;DHT22;56269;51.738;21.652;2024-03-08T00:15:09;-4.07;99.99
69162;DHT22;56269;51.738;21.652;2024-03-08T00:17:36;-4.13;99.99
69162;DHT22;56269;51.738;21.652;2024-03-08T00:20:04;-4.13;99.99
69162;DHT22;56269;51.738;21.652;2024-03-08T00:22:30;-4.01;99.99
69162;DHT22;56269;51.738;21.652;2024-03-08T00:24:57;-3.99;99.99
69162;DHT22;56269;51.738;21.652;2024-03-08T00:27:23;-4.07;99.99
69162;DHT22;56269;51.738;21.652;2024-03-08T00:29:49;-3.95;99.99
69162;DHT22;56269;51.738;21.652;2024-03-08T00:32:15;-4.06;99.99
69162;DHT22;56269;51.738;21.652;2024-03-08T00:34:43;-3.96;99.99
69162;DHT22;56269;51.738;21.652;2024-03-08T00:37:09;-4.09;99.99
69162;DHT22;56269;51.738;21.652;2024-03-08T00:39:36;-4.05;99.99
69162;DHT22;56269;51.738;21.652;2024-03-08T00:42:02;-3.99;99.99
69162;DHT22;56269;51.738;21.652;2024-03-08T00:44:29;-3.88;99.99
69162;DHT22;56269;51.738;21.652;2024-03-08T00:46:55;-3.93;99.99
69162;DHT22;56269;51.738;21.652;2024-03-08T00:49:22;-3.88;99.99
69162;DHT22;56269;51.738;21.652;2024-03-08T00:51:48;-3.91;99.99
69162;DHT22;56269;51.738;21.652;2024-03-08T00:54:15;-4.02;99.99
69162;DHT22;56269;51.738;21.652;2024-03-08T00:56:42;-3.96;99.99
69162;DHT22;56269;51.738;21.652;2024-03-08T00:59:08;-3.91;99.99
69162;DHT22;56269;51.738;21.652;2024-03-08T01:01:34;-3.68;99.99
69162;DHT22;56269;51.738;21.652;2024-03-08T01:04:01;-3.55;99.99
69162;DHT22;56269;51.738;21.652;2024-03-08T01:06:27;-3.64;99.99
69162;DHT22;56269;51.738;21.652;2024-03-08T01:08:54;-3.54;99.99
69162;DHT22;56269;51.738;21.652;2024-03-08T01:11:20;-3.77;99.85
69162;DHT22;56269;51.738;21.652;2024-03-08T01:13:46;-3.89;99.42
69162;DHT22;56269;51.738;21.652;2024-03-08T01:16:13;-3.93;99.29
69162;DHT22;56269;51.738;21.652;2024-03-08T01:18:39;-4.02;99.71
69162;DHT22;56269;51.738;21.652;2024-03-08T01:21:06;-4.33;99.02
69162;DHT22;56269;51.738;21.652;2024-03-08T01:23:32;-4.50;99.21
69162;DHT22;56269;51.738;21.652;2024-03-08T01:25:58;-4.60;99.88
69162;DHT22;56269;51.738;21.652;2024-03-08T01:28:25;-4.61;99.99
69162;DHT22;56269;51.738;21.652;2024-03-08T01:30:51;-4.57;99.99
69162;DHT22;56269;51.738;21.652;2024-03-08T01:33:23;-4.56;99.99
69162;DHT22;56269;51.738;21.652;2024-03-08T01:35:49;-4.54;99.99
69162;DHT22;56269;51.738;21.652;2024-03-08T01:38:16;-4.53;99.99
69162;DHT22;56269;51.738;21.652;2024-03-08T01:40:42;-4.37;99.99
69162;DHT22;56269;51.738;21.652;2024-03-08T01:43:27;-4.22;99.99
69162;DHT22;56269;51.738;21.652;2024-03-08T01:45:55;-4.32;99.99
69162;DHT22;56269;51.738;21.652;2024-03-08T01:48:23;-4.37;99.99
69162;DHT22;56269;51.738;21.652;2024-03-08T01:50:50;-4.40;99.99
69162;DHT22;56269;51.738;21.652;2024-03-08T01:53:18;-4.44;99.99
69162;DHT22;56269;51.738;21.652;2024-03-08T01:55:47;-4.33;99.99
69162;DHT22;56269;51.738;21.652;2024-03-08T01:58:14;-4.33;99.99
69162;DHT22;56269;51.738;21.652;2024-03-08T02:00:44;-4.40;99.99
69162;DHT22;56269;51.738;21.652;2024-03-08T02:03:11;-4.47;99.99
69162;DHT22;56269;51.738;21.652;2024-03-08T02:05:40;-4.53;99.99
69162;DHT22;56269;51.738;21.652;2024-03-08T02:08:07;-4.67;99.99
69162;DHT22;56269;51.738;21.652;2024-03-08T02:10:39;-4.64;99.99
69162;DHT22;56269;51.738;21.652;2024-03-08T02:13:05;-4.67;99.99
69162;DHT22;56269;51.738;21.652;2024-03-08T02:15:54;-4.67;99.99
69162;DHT22;56269;51.738;21.652;2024-03-08T02:18:22;-4.68;99.99
69162;DHT22;56269;51.738;21.652;2024-03-08T02:20:52;-4.68;99.99
69162;DHT22;56269;51.738;21.652;2024-03-08T02:23:22;-4.70;99.99
69162;DHT22;56269;51.738;21.652;2024-03-08T02:25:50;-4.67;99.99
69162;DHT22;56269;51.738;21.652;2024-03-08T02:28:17;-4.60;99.99
69162;DHT22;56269;51.738;21.652;2024-03-08T02:30:46;-4.54;99.99
69162;DHT22;56269;51.738;21.652;2024-03-08T02:33:17;-4.54;99.99
69162;DHT22;56269;51.738;21.652;2024-03-08T02:35:44;-4.53;99.99
69162;DHT22;56269;51.738;21.652;2024-03-08T02:38:18;-4.56;99.99
69162;DHT22;56269;51.738;21.652;2024-03-08T02:40:49;-4.57;99.99
69162;DHT22;56269;51.738;21.652;2024-03-08T02:43:16;-4.63;99.99
69162;DHT22;56269;51.738;21.652;2024-03-08T02:45:43;-4.73;99.99
69162;DHT22;56269;51.738;21.652;2024-03-08T02:48:13;-4.75;99.99
69162;DHT22;56269;51.738;21.652;2024-03-08T02:50:40;-4.83;99.99
69162;DHT22;56269;51.738;21.652;2024-03-08T02:53:08;-4.80;99.99
69162;DHT22;56269;51.738;21.652;2024-03-08T02:55:35;-4.70;99.99
69162;DHT22;56269;51.738;21.652;2024-03-08T02:58:02;-4.63;99.99
69162;DHT22;56269;51.738;21.652;2024-03-08T03:00:34;-4.65;99.99
69162;DHT22;56269;51.738;21.652;2024-03-08T03:03:00;-4.63;99.99
69162;DHT22;56269;51.738;21.652;2024-03-08T03:05:29;-4.53;99.99
69162;DHT22;56269;51.738;21.652;2024-03-08T03:07:58;-4.63;99.99
69162;DHT22;56269;51.738;21.652;2024-03-08T03:10:24;-4.73;99.99
69162;DHT22;56269;51.738;21.652;2024-03-08T03:12:51;-4.78;99.99
69162;DHT22;56269;51.738;21.652;2024-03-08T03:15:17;-4.84;99.99
69162;DHT22;56269;51.738;21.652;2024-03-08T03:17:48;-4.88;99.99
69162;DHT22;56269;51.738;21.652;2024-03-08T03:20:14;-4.85;99.99
69162;DHT22;56269;51.738;21.652;2024-03-08T03:22:47;-4.91;99.99
69162;DHT22;56269;51.738;21.652;2024-03-08T03:25:19;-4.94;99.99
69162;DHT22;56269;51.738;21.652;2024-03-08T03:27:55;-4.83;99.99
69162;DHT22;56269;51.738;21.652;2024-03-08T03:30:24;-4.87;99.99
69162;DHT22;56269;51.738;21.652;2024-03-08T03:32:53;-4.85;99.99
69162;DHT22;56269;51.738;21.652;2024-03-08T03:35:21;-4.84;99.99
69162;DHT22;56269;51.738;21.652;2024-03-08T03:37:48;-4.85;99.99
69162;DHT22;56269;51.738;21.652;2024-03-08T03:40:28;-4.94;99.99
69162;DHT22;56269;51.738;21.652;2024-03-08T03:42:55;-4.91;99.99
69162;DHT22;56269;51.738;21.652;2024-03-08T03:45:22;-4.91;99.99
69162;DHT22;56269;51.738;21.652;2024-03-08T03:47:48;-5.01;99.99
69162;DHT22;56269;51.738;21.652;2024-03-08T03:50:14;-5.15;99.99
69162;DHT22;56269;51.738;21.652;2024-03-08T03:52:40;-5.22;99.99
69162;DHT22;56269;51.738;21.652;2024-03-08T03:55:08;-5.30;99.99
69162;DHT22;56269;51.738;21.652;2024-03-08T03:57:34;-5.35;99.99
69162;DHT22;56269;51.738;21.652;2024-03-08T04:00:00;-5.22;99.99
69162;DHT22;56269;51.738;21.652;2024-03-08T04:02:28;-5.15;99.99
69162;DHT22;56269;51.738;21.652;2024-03-08T04:04:54;-5.19;99.99
69162;DHT22;56269;51.738;21.652;2024-03-08T04:07:21;-5.30;99.99
69162;DHT22;56269;51.738;21.652;2024-03-08T04:09:47;-5.28;99.99
69162;DHT22;56269;51.738;21.652;2024-03-08T04:12:13;-5.18;99.99
69162;DHT22;56269;51.738;21.652;2024-03-08T04:14:42;-5.04;99.99
69162;DHT22;56269;51.738;21.652;2024-03-08T04:17:08;-5.01;99.99
69162;DHT22;56269;51.738;21.652;2024-03-08T04:19:35;-5.07;99.99
69162;DHT22;56269;51.738;21.652;2024-03-08T04:22:01;-5.04;99.99
69162;DHT22;56269;51.738;21.652;2024-03-08T04:24:29;-5.07;99.99
69162;DHT22;56269;51.738;21.652;2024-03-08T04:26:56;-5.07;99.99
69162;DHT22;56269;51.738;21.652;2024-03-08T04:29:23;-5.05;99.99
69162;DHT22;56269;51.738;21.652;2024-03-08T04:31:49;-5.08;99.99
69162;DHT22;56269;51.738;21.652;2024-03-08T04:34:20;-5.07;99.99
69162;DHT22;56269;51.738;21.652;2024-03-08T04:36:48;-5.02;99.99
69162;DHT22;56269;51.738;21.652;2024-03-08T04:39:14;-5.04;99.99
69162;DHT22;56269;51.738;21.652;2024-03-08T04:41:45;-5.04;99.99
69162;DHT22;56269;51.738;21.652;2024-03-08T04:44:11;-5.02;99.99
69162;DHT22;56269;51.738;21.652;2024-03-08T04:46:38;-5.01;99.99
69162;DHT22;56269;51.738;21.652;2024-03-08T04:49:04;-5.01;99.99
69162;DHT22;56269;51.738;21.652;2024-03-08T04:51:31;-5.05;99.99
69162;DHT22;56269;51.738;21.652;2024-03-08T04:53:57;-5.09;99.99
69162;DHT22;56269;51.738;21.652;2024-03-08T04:56:23;-5.09;99.99
69162;DHT22;56269;51.738;21.652;2024-03-08T04:58:49;-5.07;99.99
69162;DHT22;56269;51.738;21.652;2024-03-08T05:01:16;-5.05;99.99
69162;DHT22;56269;51.738;21.652;2024-03-08T05:03:42;-5.08;99.99
69162;DHT22;56269;51.738;21.652;2024-03-08T05:06:08;-5.08;99.99
69162;DHT22;56269;51.738;21.652;2024-03-08T05:08:34;-5.30;99.99
69162;DHT22;56269;51.738;21.652;2024-03-08T05:11:00;-5.40;99.99
69162;DHT22;56269;51.738;21.652;2024-03-08T05:13:30;-5.35;99.99
69162;DHT22;56269;51.738;21.652;2024-03-08T05:15:57;-5.32;99.99
69162;DHT22;56269;51.738;21.652;2024-03-08T05:18:26;-5.28;99.99
69162;DHT22;56269;51.738;21.652;2024-03-08T05:20:54;-5.13;99.99
69162;DHT22;56269;51.738;21.652;2024-03-08T05:23:20;-4.92;99.99
69162;DHT22;56269;51.738;21.652;2024-03-08T05:25:48;-4.91;99.99
69162;DHT22;56269;51.738;21.652;2024-03-08T05:28:14;-4.89;99.99
69162;DHT22;56269;51.738;21.652;2024-03-08T05:30:40;-4.97;99.99
69162;DHT22;56269;51.738;21.652;2024-03-08T05:33:09;-5.02;99.99
69162;DHT22;56269;51.738;21.652;2024-03-08T05:35:36;-4.99;99.99
69162;DHT22;56269;51.738;21.652;2024-03-08T05:38:02;-5.01;99.99
69162;DHT22;56269;51.738;21.652;2024-03-08T05:40:29;-4.98;99.99
69162;DHT22;56269;51.738;21.652;2024-03-08T05:42:58;-5.01;99.85
69162;DHT22;56269;51.738;21.652;2024-03-08T05:45:25;-4.98;99.97
69162;DHT22;56269;51.738;21.652;2024-03-08T05:47:54;-4.89;99.99
69162;DHT22;56269;51.738;21.652;2024-03-08T05:50:21;-4.87;99.99
69162;DHT22;56269;51.738;21.652;2024-03-08T05:52:47;-4.83;99.99
69162;DHT22;56269;51.738;21.652;2024-03-08T05:55:14;-4.80;99.99
69162;DHT22;56269;51.738;21.652;2024-03-08T05:57:41;-4.73;99.99
69162;DHT22;56269;51.738;21.652;2024-03-08T06:00:10;-4.63;99.99
69162;DHT22;56269;51.738;21.652;2024-03-08T06:02:37;-4.49;99.99
69162;DHT22;56269;51.738;21.652;2024-03-08T06:05:12;-4.27;99.99
69162;DHT22;56269;51.738;21.652;2024-03-08T06:07:38;-4.06;99.99
69162;DHT22;56269;51.738;21.652;2024-03-08T06:10:11;-3.86;99.83
69162;DHT22;56269;51.738;21.652;2024-03-08T06:12:43;-3.64;99.42
69162;DHT22;56269;51.738;21.652;2024-03-08T06:15:09;-3.34;98.91
69162;DHT22;56269;51.738;21.652;2024-03-08T06:17:36;-3.01;98.17
69162;DHT22;56269;51.738;21.652;2024-03-08T06:20:02;-2.80;97.55
69162;DHT22;56269;51.738;21.652;2024-03-08T06:22:30;-2.49;96.83
69162;DHT22;56269;51.738;21.652;2024-03-08T06:24:56;-2.14;96.41
69162;DHT22;56269;51.738;21.652;2024-03-08T06:27:22;-1.89;96.02
69162;DHT22;56269;51.738;21.652;2024-03-08T06:29:49;-1.59;95.99
69162;DHT22;56269;51.738;21.652;2024-03-08T06:32:15;-1.32;95.18
69162;DHT22;56269;51.738;21.652;2024-03-08T06:34:41;-1.16;95.05
69162;DHT22;56269;51.738;21.652;2024-03-08T06:37:07;-0.95;95.01
69162;DHT22;56269;51.738;21.652;2024-03-08T06:39:33;-0.60;95.16
69162;DHT22;56269;51.738;21.652;2024-03-08T06:42:01;-0.49;94.43
69162;DHT22;56269;51.738;21.652;2024-03-08T06:44:28;-0.28;94.72
69162;DHT22;56269;51.738;21.652;2024-03-08T06:46:54;0.13;94.66
69162;DHT22;56269;51.738;21.652;2024-03-08T06:49:20;0.35;93.75
69162;DHT22;56269;51.738;21.652;2024-03-08T06:51:46;0.64;93.96
69162;DHT22;56269;51.738;21.652;2024-03-08T06:54:13;0.95;94.22
69162;DHT22;56269;51.738;21.652;2024-03-08T06:56:39;1.15;93.02
69162;DHT22;56269;51.738;21.652;2024-03-08T06:59:05;1.42;92.53
69162;DHT22;56269;51.738;21.652;2024-03-08T07:01:32;1.52;92.13
69162;DHT22;56269;51.738;21.652;2024-03-08T07:04:00;1.72;93.07
69162;DHT22;56269;51.738;21.652;2024-03-08T07:06:31;2.13;91.99
69162;DHT22;56269;51.738;21.652;2024-03-08T07:08:59;2.23;90.20
69162;DHT22;56269;51.738;21.652;2024-03-08T07:11:25;2.33;90.43
69162;DHT22;56269;51.738;21.652;2024-03-08T07:13:52;2.52;89.12
69162;DHT22;56269;51.738;21.652;2024-03-08T07:16:17;2.71;89.82
69162;DHT22;56269;51.738;21.652;2024-03-08T07:18:44;2.85;89.03
69162;DHT22;56269;51.738;21.652;2024-03-08T07:21:13;3.09;88.93
69162;DHT22;56269;51.738;21.652;2024-03-08T07:23:39;3.19;87.60
69162;DHT22;56269;51.738;21.652;2024-03-08T07:26:23;3.30;88.30
69162;DHT22;56269;51.738;21.652;2024-03-08T07:28:50;3.70;87.94
69162;DHT22;56269;51.738;21.652;2024-03-08T07:31:16;3.75;86.49
69162;DHT22;56269;51.738;21.652;2024-03-08T07:33:45;4.28;85.46
69162;DHT22;56269;51.738;21.652;2024-03-08T07:36:11;4.53;85.01
69162;DHT22;56269;51.738;21.652;2024-03-08T07:38:37;4.72;84.08
69162;DHT22;56269;51.738;21.652;2024-03-08T07:41:03;5.00;84.45
69162;DHT22;56269;51.738;21.652;2024-03-08T07:43:30;5.31;83.57
69162;DHT22;56269;51.738;21.652;2024-03-08T07:45:56;5.21;81.06
69162;DHT22;56269;51.738;21.652;2024-03-08T07:48:22;5.30;82.75
69162;DHT22;56269;51.738;21.652;2024-03-08T07:50:48;5.49;82.14
69162;DHT22;56269;51.738;21.652;2024-03-08T07:53:15;5.69;81.61
69162;DHT22;56269;51.738;21.652;2024-03-08T07:55:42;5.55;80.83
69162;DHT22;56269;51.738;21.652;2024-03-08T07:58:09;5.48;81.18
69162;DHT22;56269;51.738;21.652;2024-03-08T08:00:36;5.51;80.85
69162;DHT22;56269;51.738;21.652;2024-03-08T08:03:03;5.54;79.98
69162;DHT22;56269;51.738;21.652;2024-03-08T08:05:30;5.97;79.74
69162;DHT22;56269;51.738;21.652;2024-03-08T08:08:02;6.23;79.50
69162;DHT22;56269;51.738;21.652;2024-03-08T08:10:33;5.83;81.29
69162;DHT22;56269;51.738;21.652;2024-03-08T08:12:59;6.24;80.69
69162;DHT22;56269;51.738;21.652;2024-03-08T08:15:25;6.14;79.16
69162;DHT22;56269;51.738;21.652;2024-03-08T08:17:54;5.79;79.17
69162;DHT22;56269;51.738;21.652;2024-03-08T08:20:20;5.70;80.60
69162;DHT22;56269;51.738;21.652;2024-03-08T08:22:47;6.05;79.88
69162;DHT22;56269;51.738;21.652;2024-03-08T08:25:14;6.24;78.90
69162;DHT22;56269;51.738;21.652;2024-03-08T08:27:46;6.27;77.96
69162;DHT22;56269;51.738;21.652;2024-03-08T08:30:12;6.50;77.74
69162;DHT22;56269;51.738;21.652;2024-03-08T08:32:39;6.44;76.28
69162;DHT22;56269;51.738;21.652;2024-03-08T08:35:07;6.40;75.33
69162;DHT22;56269;51.738;21.652;2024-03-08T08:37:39;6.64;75.37
69162;DHT22;56269;51.738;21.652;2024-03-08T08:40:05;6.72;75.37
69162;DHT22;56269;51.738;21.652;2024-03-08T08:42:38;6.92;72.09
69162;DHT22;56269;51.738;21.652;2024-03-08T08:45:05;7.43;72.59
69162;DHT22;56269;51.738;21.652;2024-03-08T08:47:35;7.32;73.42
69162;DHT22;56269;51.738;21.652;2024-03-08T08:50:02;7.02;72.78
69162;DHT22;56269;51.738;21.652;2024-03-08T08:52:31;7.27;72.41
69162;DHT22;56269;51.738;21.652;2024-03-08T08:54:57;7.08;72.27
69162;DHT22;56269;51.738;21.652;2024-03-08T08:57:24;7.50;73.21
69162;DHT22;56269;51.738;21.652;2024-03-08T08:59:50;7.67;72.50
69162;DHT22;56269;51.738;21.652;2024-03-08T09:02:16;7.75;68.46
69162;DHT22;56269;51.738;21.652;2024-03-08T09:04:43;7.73;66.42
69162;DHT22;56269;51.738;21.652;2024-03-08T09:07:10;7.81;70.79
69162;DHT22;56269;51.738;21.652;2024-03-08T09:09:36;8.12;68.35
69162;DHT22;56269;51.738;21.652;2024-03-08T09:12:04;7.90;67.57
69162;DHT22;56269;51.738;21.652;2024-03-08T09:14:30;8.01;68.53
69162;DHT22;56269;51.738;21.652;2024-03-08T09:16:56;8.42;67.32
69162;DHT22;56269;51.738;21.652;2024-03-08T09:19:22;8.24;64.42
69162;DHT22;56269;51.738;21.652;2024-03-08T09:21:51;8.04;64.26
69162;DHT22;56269;51.738;21.652;2024-03-08T09:24:18;8.56;65.37
69162;DHT22;56269;51.738;21.652;2024-03-08T09:26:43;8.62;64.07
69162;DHT22;56269;51.738;21.652;2024-03-08T09:29:10;8.49;61.92
69162;DHT22;56269;51.738;21.652;2024-03-08T09:31:37;8.31;63.46
69162;DHT22;56269;51.738;21.652;2024-03-08T09:34:06;8.20;63.76
69162;DHT22;56269;51.738;21.652;2024-03-08T09:36:34;8.28;63.46
69162;DHT22;56269;51.738;21.652;2024-03-08T09:39:00;8.59;63.68
69162;DHT22;56269;51.738;21.652;2024-03-08T09:41:26;8.84;63.34
69162;DHT22;56269;51.738;21.652;2024-03-08T09:43:53;9.14;62.65
69162;DHT22;56269;51.738;21.652;2024-03-08T09:46:19;8.99;62.13
69162;DHT22;56269;51.738;21.652;2024-03-08T09:48:48;8.99;62.17
69162;DHT22;56269;51.738;21.652;2024-03-08T09:51:14;9.16;62.19
69162;DHT22;56269;51.738;21.652;2024-03-08T09:53:42;9.07;62.52
69162;DHT22;56269;51.738;21.652;2024-03-08T09:56:08;8.87;60.86
69162;DHT22;56269;51.738;21.652;2024-03-08T09:58:35;8.50;63.48
69162;DHT22;56269;51.738;21.652;2024-03-08T10:01:01;8.57;63.98
69162;DHT22;56269;51.738;21.652;2024-03-08T10:03:33;8.86;63.17
69162;DHT22;56269;51.738;21.652;2024-03-08T10:05:59;8.60;60.78
69162;DHT22;56269;51.738;21.652;2024-03-08T10:08:29;8.42;61.40
69162;DHT22;56269;51.738;21.652;2024-03-08T10:10:56;8.77;61.71
69162;DHT22;56269;51.738;21.652;2024-03-08T10:13:25;9.00;61.00
69162;DHT22;56269;51.738;21.652;2024-03-08T10:15:53;8.45;61.75
69162;DHT22;56269;51.738;21.652;2024-03-08T10:18:20;8.15;62.63
69162;DHT22;56269;51.738;21.652;2024-03-08T10:21:05;8.50;60.66
69162;DHT22;56269;51.738;21.652;2024-03-08T10:23:33;9.32;63.90
69162;DHT22;56269;51.738;21.652;2024-03-08T10:26:10;8.77;63.03
69162;DHT22;56269;51.738;21.652;2024-03-08T10:28:37;8.99;62.54
69162;DHT22;56269;51.738;21.652;2024-03-08T10:31:03;8.96;62.19
69162;DHT22;56269;51.738;21.652;2024-03-08T10:33:32;8.87;61.26
69162;DHT22;56269;51.738;21.652;2024-03-08T10:35:59;9.18;61.55
69162;DHT22;56269;51.738;21.652;2024-03-08T10:38:26;9.21;61.98
69162;DHT22;56269;51.738;21.652;2024-03-08T10:40:53;9.35;61.31
69162;DHT22;56269;51.738;21.652;2024-03-08T10:43:24;9.68;58.38
69162;DHT22;56269;51.738;21.652;2024-03-08T10:49:25;10.36;58.34
69162;DHT22;56269;51.738;21.652;2024-03-08T10:51:55;10.34;58.88
69162;DHT22;56269;51.738;21.652;2024-03-08T10:54:22;10.12;55.13
69162;DHT22;56269;51.738;21.652;2024-03-08T10:56:50;10.00;57.05
69162;DHT22;56269;51.738;21.652;2024-03-08T10:59:18;9.82;56.88
69162;DHT22;56269;51.738;21.652;2024-03-08T11:01:44;9.21;58.11
69162;DHT22;56269;51.738;21.652;2024-03-08T11:04:11;9.08;58.60
69162;DHT22;56269;51.738;21.652;2024-03-08T11:09:37;9.72;58.00
69162;DHT22;56269;51.738;21.652;2024-03-08T11:12:23;9.59;58.59
69162;DHT22;56269;51.738;21.652;2024-03-08T11:15:11;9.59;56.64
69162;DHT22;56269;51.738;21.652;2024-03-08T11:22:54;9.61;55.70
69162;DHT22;56269;51.738;21.652;2024-03-08T11:28:19;9.48;54.39
69162;DHT22;56269;51.738;21.652;2024-03-08T11:33:28;9.71;53.96
69162;DHT22;56269;51.738;21.652;2024-03-08T11:38:40;9.37;55.23
69162;DHT22;56269;51.738;21.652;2024-03-08T11:41:08;9.37;55.74
69162;DHT22;56269;51.738;21.652;2024-03-08T11:43:33;9.74;53.72
69162;DHT22;56269;51.738;21.652;2024-03-08T11:46:08;9.75;55.09
69162;DHT22;56269;51.738;21.652;2024-03-08T11:48:35;9.77;55.50
69162;DHT22;56269;51.738;21.652;2024-03-08T11:51:04;10.24;54.30
69162;DHT22;56269;51.738;21.652;2024-03-08T11:53:30;10.70;59.30
69162;DHT22;56269;51.738;21.652;2024-03-08T11:56:11;10.56;54.40
69162;DHT22;56269;51.738;21.652;2024-03-08T11:58:38;10.41;54.43
69162;DHT22;56269;51.738;21.652;2024-03-08T12:01:08;10.24;50.72
69162;DHT22;56269;51.738;21.652;2024-03-08T12:03:42;10.03;52.34
69162;DHT22;56269;51.738;21.652;2024-03-08T12:06:12;10.16;53.46
69162;DHT22;56269;51.738;21.652;2024-03-08T12:08:39;9.72;53.49
69162;DHT22;56269;51.738;21.652;2024-03-08T12:11:07;9.45;52.71
69162;DHT22;56269;51.738;21.652;2024-03-08T12:13:35;9.52;52.76
69162;DHT22;56269;51.738;21.652;2024-03-08T12:16:03;9.83;52.36
69162;DHT22;56269;51.738;21.652;2024-03-08T12:18:33;10.28;51.98
69162;DHT22;56269;51.738;21.652;2024-03-08T12:21:10;9.88;52.93
69162;DHT22;56269;51.738;21.652;2024-03-08T12:23:37;9.62;52.82
69162;DHT22;56269;51.738;21.652;2024-03-08T12:26:15;9.39;54.65
69162;DHT22;56269;51.738;21.652;2024-03-08T12:28:42;9.54;55.19
69162;DHT22;56269;51.738;21.652;2024-03-08T12:31:14;10.06;52.96
69162;DHT22;56269;51.738;21.652;2024-03-08T12:33:50;10.08;52.70
69162;DHT22;56269;51.738;21.652;2024-03-08T12:36:17;11.00;55.17
69162;DHT22;56269;51.738;21.652;2024-03-08T12:38:44;10.71;52.18
69162;DHT22;56269;51.738;21.652;2024-03-08T12:41:31;10.75;51.32
69162;DHT22;56269;51.738;21.652;2024-03-08T12:43:58;10.74;49.73
69162;DHT22;56269;51.738;21.652;2024-03-08T12:46:24;10.57;50.90
69162;DHT22;56269;51.738;21.652;2024-03-08T12:48:52;10.59;52.99
69162;DHT22;56269;51.738;21.652;2024-03-08T12:51:20;10.51;51.47
69162;DHT22;56269;51.738;21.652;2024-03-08T12:53:46;10.63;52.72
69162;DHT22;56269;51.738;21.652;2024-03-08T12:56:20;10.17;50.19
69162;DHT22;56269;51.738;21.652;2024-03-08T12:58:54;10.32;50.30
69162;DHT22;56269;51.738;21.652;2024-03-08T13:01:20;10.65;52.49
69162;DHT22;56269;51.738;21.652;2024-03-08T13:03:46;10.82;50.46
69162;DHT22;56269;51.738;21.652;2024-03-08T13:06:12;10.77;50.82
69162;DHT22;56269;51.738;21.652;2024-03-08T13:08:38;10.94;51.38
69162;DHT22;56269;51.738;21.652;2024-03-08T13:11:06;10.41;49.61
69162;DHT22;56269;51.738;21.652;2024-03-08T13:13:33;10.53;52.92
69162;DHT22;56269;51.738;21.652;2024-03-08T13:16:03;10.59;50.00
69162;DHT22;56269;51.738;21.652;2024-03-08T13:18:29;9.99;50.68
69162;DHT22;56269;51.738;21.652;2024-03-08T13:20:55;9.37;53.48
69162;DHT22;56269;51.738;21.652;2024-03-08T13:23:23;10.19;52.98
69162;DHT22;56269;51.738;21.652;2024-03-08T13:25:49;10.49;50.51
69162;DHT22;56269;51.738;21.652;2024-03-08T13:28:15;10.72;49.76
69162;DHT22;56269;51.738;21.652;2024-03-08T13:30:43;10.63;50.98
69162;DHT22;56269;51.738;21.652;2024-03-08T13:33:10;10.81;51.24
69162;DHT22;56269;51.738;21.652;2024-03-08T13:35:37;10.81;53.25
69162;DHT22;56269;51.738;21.652;2024-03-08T13:38:04;10.44;49.40
69162;DHT22;56269;51.738;21.652;2024-03-08T13:40:31;10.59;50.22
69162;DHT22;56269;51.738;21.652;2024-03-08T13:42:57;10.84;53.68
69162;DHT22;56269;51.738;21.652;2024-03-08T13:45:27;10.98;50.66
69162;DHT22;56269;51.738;21.652;2024-03-08T13:47:56;11.12;55.88
69162;DHT22;56269;51.738;21.652;2024-03-08T13:50:22;10.60;50.17
69162;DHT22;56269;51.738;21.652;2024-03-08T13:52:50;10.51;50.68
69162;DHT22;56269;51.738;21.652;2024-03-08T13:55:20;10.41;50.16
69162;DHT22;56269;51.738;21.652;2024-03-08T13:57:48;10.34;51.06
69162;DHT22;56269;51.738;21.652;2024-03-08T14:00:15;9.96;50.74
69162;DHT22;56269;51.738;21.652;2024-03-08T14:02:42;10.08;52.13
69162;DHT22;56269;51.738;21.652;2024-03-08T14:05:10;9.90;50.44
69162;DHT22;56269;51.738;21.652;2024-03-08T14:07:37;9.88;51.94
69162;DHT22;56269;51.738;21.652;2024-03-08T14:10:05;9.90;56.12
69162;DHT22;56269;51.738;21.652;2024-03-08T14:12:33;9.86;51.97
69162;DHT22;56269;51.738;21.652;2024-03-08T14:14:59;9.59;53.10
69162;DHT22;56269;51.738;21.652;2024-03-08T14:17:26;9.99;51.12
69162;DHT22;56269;51.738;21.652;2024-03-08T14:19:53;10.00;52.69
69162;DHT22;56269;51.738;21.652;2024-03-08T14:22:20;10.32;52.50
69162;DHT22;56269;51.738;21.652;2024-03-08T14:24:47;9.92;52.66
69162;DHT22;56269;51.738;21.652;2024-03-08T14:27:13;9.72;50.17
69162;DHT22;56269;51.738;21.652;2024-03-08T14:29:41;9.61;50.04
69162;DHT22;56269;51.738;21.652;2024-03-08T14:32:09;9.75;51.30
69162;DHT22;56269;51.738;21.652;2024-03-08T14:34:36;9.86;50.24
69162;DHT22;56269;51.738;21.652;2024-03-08T14:37:02;9.79;50.39
69162;DHT22;56269;51.738;21.652;2024-03-08T14:39:37;9.86;52.37
69162;DHT22;56269;51.738;21.652;2024-03-08T14:42:03;9.62;52.66
69162;DHT22;56269;51.738;21.652;2024-03-08T14:44:30;9.74;50.59
69162;DHT22;56269;51.738;21.652;2024-03-08T14:46:57;9.74;50.97
69162;DHT22;56269;51.738;21.652;2024-03-08T14:49:23;9.88;50.17
69162;DHT22;56269;51.738;21.652;2024-03-08T14:51:52;9.72;51.54
69162;DHT22;56269;51.738;21.652;2024-03-08T14:54:20;9.62;52.59
69162;DHT22;56269;51.738;21.652;2024-03-08T14:56:49;9.37;50.13
69162;DHT22;56269;51.738;21.652;2024-03-08T14:59:18;9.06;51.13
69162;DHT22;56269;51.738;21.652;2024-03-08T15:01:46;9.06;52.67
69162;DHT22;56269;51.738;21.652;2024-03-08T15:04:13;9.00;52.77
69162;DHT22;56269;51.738;21.652;2024-03-08T15:06:41;9.10;53.98
69162;DHT22;56269;51.738;21.652;2024-03-08T15:09:09;9.21;53.12
69162;DHT22;56269;51.738;21.652;2024-03-08T15:11:46;9.23;53.26
69162;DHT22;56269;51.738;21.652;2024-03-08T15:14:12;9.04;53.06
69162;DHT22;56269;51.738;21.652;2024-03-08T15:16:39;8.69;54.79
69162;DHT22;56269;51.738;21.652;2024-03-08T15:19:09;8.63;54.72
69162;DHT22;56269;51.738;21.652;2024-03-08T15:21:38;8.72;53.96
69162;DHT22;56269;51.738;21.652;2024-03-08T15:24:04;8.60;54.41
69162;DHT22;56269;51.738;21.652;2024-03-08T15:26:35;8.52;56.66
69162;DHT22;56269;51.738;21.652;2024-03-08T15:29:02;8.48;53.98
69162;DHT22;56269;51.738;21.652;2024-03-08T15:31:30;8.38;54.61
69162;DHT22;56269;51.738;21.652;2024-03-08T15:33:58;8.11;57.72
69162;DHT22;56269;51.738;21.652;2024-03-08T15:36:27;8.05;58.59
69162;DHT22;56269;51.738;21.652;2024-03-08T15:38:59;7.93;59.15
69162;DHT22;56269;51.738;21.652;2024-03-08T15:41:26;7.57;61.96
69162;DHT22;56269;51.738;21.652;2024-03-08T15:43:53;7.23;70.12
69162;DHT22;56269;51.738;21.652;2024-03-08T15:46:20;6.92;69.75
69162;DHT22;56269;51.738;21.652;2024-03-08T15:48:50;6.65;70.05